Time;durP1;ratioP1;P1;durP2;ratioP2;P2;SDS_P1;SDS_P2;PMS_P1;PMS_P2;Temp;Humidity;BMP_temperature;BMP_pressure;BME280_temperature;BME280_humidity;BME280_pressure;Samples;Min_cycle;Max_cycle;Signal;HPM_P1;HPM_P2
2021/05/05 00:01:13;;;;;;;6.90;2.07;;;;;;;;;;4361107;32;20159;-68
2021/05/05 00:03:38;;;;;;;8.20;1.30;;;;;;;;;;4346933;33;20167;-70
2021/05/05 00:06:03;;;;;;;7.57;1.63;;;;;;;;;;4361350;32;20142;-69
2021/05/05 00:08:29;;;;;;;5.37;1.50;;;;;;;;;;4360438;32;20155;-69
2021/05/05 00:10:54;;;;;;;8.50;1.73;;;;;;;;;;4361936;32;20579;-70
2021/05/05 00:13:19;;;;;;;10.80;1.83;;;;;;;;;;4361886;32;20228;-68
2021/05/05 00:15:45;;;;;;;11.40;1.93;;;;;;;;;;4360353;32;20162;-68
2021/05/05 00:18:10;;;;;;;8.43;2.20;;;;;;;;;;4361871;32;20177;-69
2021/05/05 00:20:36;;;;;;;10.07;2.13;;;;;;;;;;4358776;33;20317;-68
2021/05/05 00:23:01;;;;;;;12.03;2.37;;;;;;;;;;4360347;32;20170;-68
2021/05/05 00:25:26;;;;;;;11.57;2.30;;;;;;;;;;4362345;32;20144;-68
2021/05/05 00:27:51;;;;;;;12.13;2.20;;;;;;;;;;4360083;32;20182;-70
2021/05/05 00:30:17;;;;;;;9.27;2.13;;;;;;;;;;4346944;33;20209;-69
2021/05/05 00:32:42;;;;;;;10.73;2.40;;;;;;;;;;4359867;32;20175;-69
2021/05/05 00:35:08;;;;;;;6.57;2.50;;;;;;;;;;4359971;33;20155;-69
2021/05/05 00:37:33;;;;;;;8.77;2.33;;;;;;;;;;4361709;32;20151;-68
2021/05/05 00:39:58;;;;;;;10.37;2.40;;;;;;;;;;4361561;32;20205;-69
2021/05/05 00:42:23;;;;;;;7.90;3.20;;;;;;;;;;4359851;33;20139;-68
2021/05/05 00:44:49;;;;;;;15.43;2.77;;;;;;;;;;4361943;32;20135;-69
2021/05/05 00:47:18;;;;;;;11.53;2.40;;;;;;;;;;4360626;32;20154;-69
2021/05/05 00:49:43;;;;;;;11.73;2.60;;;;;;;;;;4359586;32;20231;-68
2021/05/05 00:52:09;;;;;;;8.03;2.47;;;;;;;;;;4360377;32;20135;-68
2021/05/05 00:54:34;;;;;;;10.90;2.63;;;;;;;;;;4361633;32;20143;-69
2021/05/05 00:57:00;;;;;;;6.53;2.57;;;;;;;;;;4346991;33;20190;-69
2021/05/05 00:59:26;;;;;;;9.70;2.13;;;;;;;;;;4359779;33;20485;-70
2021/05/05 01:01:51;;;;;;;5.37;1.30;;;;;;;;;;4360538;32;20205;-69
2021/05/05 01:04:16;;;;;;;7.23;1.73;;;;;;;;;;4359967;32;20480;-69
2021/05/05 01:06:41;;;;;;;3.47;1.40;;;;;;;;;;4361119;33;20500;-70
2021/05/05 01:09:07;;;;;;;7.93;2.43;;;;;;;;;;4363035;32;20163;-69
2021/05/05 01:11:32;;;;;;;10.73;2.20;;;;;;;;;;4365001;33;20237;-69
2021/05/05 01:13:57;;;;;;;8.67;2.33;;;;;;;;;;4365449;32;20193;-69
2021/05/05 01:16:23;;;;;;;10.90;2.67;;;;;;;;;;4365572;32;20197;-69
2021/05/05 01:18:49;;;;;;;7.80;2.60;;;;;;;;;;4364762;32;20151;-67
2021/05/05 01:21:14;;;;;;;10.20;3.20;;;;;;;;;;4366037;32;20188;-69
2021/05/05 01:23:40;;;;;;;8.77;2.80;;;;;;;;;;4366013;32;20512;-69
2021/05/05 01:26:05;;;;;;;14.33;3.67;;;;;;;;;;4364427;32;20171;-70
2021/05/05 01:28:30;;;;;;;14.07;3.33;;;;;;;;;;4364771;32;20162;-68
2021/05/05 01:30:55;;;;;;;13.70;3.43;;;;;;;;;;4365673;32;20597;-69
2021/05/05 01:33:21;;;;;;;10.53;3.40;;;;;;;;;;4366946;32;20539;-68
2021/05/05 01:35:48;;;;;;;15.03;4.23;;;;;;;;;;4353599;32;20201;-68
2021/05/05 01:38:13;;;;;;;17.77;3.80;;;;;;;;;;4365332;32;20181;-67
2021/05/05 01:40:40;;;;;;;19.20;4.57;;;;;;;;;;4365559;32;20509;-69
2021/05/05 01:43:05;;;;;;;14.70;4.40;;;;;;;;;;4365124;32;20139;-68
2021/05/05 01:45:31;;;;;;;15.23;3.73;;;;;;;;;;4348229;33;20233;-67
2021/05/05 01:47:57;;;;;;;9.93;3.50;;;;;;;;;;4356017;32;20155;-68
2021/05/05 01:50:22;;;;;;;17.37;3.70;;;;;;;;;;4364728;32;20224;-69
2021/05/05 01:52:47;;;;;;;16.37;3.53;;;;;;;;;;4364358;32;20162;-69
2021/05/05 01:55:12;;;;;;;13.20;4.27;;;;;;;;;;4351966;33;20163;-69
2021/05/05 01:57:43;;;;;;;9.67;3.00;;;;;;;;;;4365546;32;20151;-70
2021/05/05 02:00:13;;;;;;;17.10;4.13;;;;;;;;;;4352598;32;20162;-69
2021/05/05 02:02:38;;;;;;;20.60;3.90;;;;;;;;;;4352106;32;20240;-69
2021/05/05 02:05:04;;;;;;;15.07;3.40;;;;;;;;;;4366058;32;20544;-69
2021/05/05 02:07:29;;;;;;;9.50;3.10;;;;;;;;;;4364217;32;20169;-70
2021/05/05 02:09:54;;;;;;;15.67;3.53;;;;;;;;;;4364403;32;20154;-70
2021/05/05 02:12:20;;;;;;;13.47;3.10;;;;;;;;;;4351826;33;20179;-69
2021/05/05 02:14:46;;;;;;;14.67;3.00;;;;;;;;;;4365447;32;20177;-70
2021/05/05 02:17:12;;;;;;;10.33;2.80;;;;;;;;;;4364849;32;20237;-70
2021/05/05 02:19:37;;;;;;;17.30;3.53;;;;;;;;;;4365546;32;20155;-71
2021/05/05 02:22:02;;;;;;;11.37;2.97;;;;;;;;;;4348076;33;20167;-69
2021/05/05 02:24:27;;;;;;;12.93;3.00;;;;;;;;;;4363382;32;20193;-69
2021/05/05 02:26:53;;;;;;;14.67;3.10;;;;;;;;;;4361926;32;20167;-70
2021/05/05 02:29:18;;;;;;;12.43;2.90;;;;;;;;;;4363297;32;20436;-69
2021/05/05 02:31:43;;;;;;;11.17;2.57;;;;;;;;;;4362786;32;20189;-70
2021/05/05 02:34:09;;;;;;;14.57;2.70;;;;;;;;;;4363747;32;20147;-69
2021/05/05 02:36:34;;;;;;;10.97;2.93;;;;;;;;;;4361799;32;20266;-68
2021/05/05 02:39:00;;;;;;;13.60;2.70;;;;;;;;;;4361864;32;20165;-70
2021/05/05 02:41:26;;;;;;;10.77;2.90;;;;;;;;;;4361968;32;20135;-70
2021/05/05 02:43:51;;;;;;;11.93;3.07;;;;;;;;;;4363135;32;20175;-69
2021/05/05 02:46:16;;;;;;;8.25;2.58;;;;;;;;;;4348239;33;20167;-70
2021/05/05 02:48:41;;;;;;;15.97;3.17;;;;;;;;;;4361526;32;20178;-69
2021/05/05 02:51:06;;;;;;;9.60;2.43;;;;;;;;;;4363543;32;20587;-70
2021/05/05 02:53:31;;;;;;;11.47;2.67;;;;;;;;;;4363095;32;20148;-70
2021/05/05 02:55:57;;;;;;;12.80;2.47;;;;;;;;;;4361277;32;20147;-70
2021/05/05 02:58:22;;;;;;;10.80;3.50;;;;;;;;;;4362485;32;20551;-69
2021/05/05 03:00:47;;;;;;;16.57;3.30;;;;;;;;;;4360170;33;20286;-70
2021/05/05 03:03:12;;;;;;;14.37;3.13;;;;;;;;;;4359959;33;20179;-71
2021/05/05 03:05:37;;;;;;;9.37;2.97;;;;;;;;;;4361170;33;20152;-71
2021/05/05 03:08:02;;;;;;;13.00;3.07;;;;;;;;;;4359953;33;20206;-70
2021/05/05 03:10:28;;;;;;;11.73;3.20;;;;;;;;;;4347606;33;20287;-69
2021/05/05 03:12:53;;;;;;;11.77;2.83;;;;;;;;;;4349313;32;20171;-70
2021/05/05 03:15:18;;;;;;;12.57;3.00;;;;;;;;;;4361501;32;20220;-71
2021/05/05 03:17:43;;;;;;;10.27;2.40;;;;;;;;;;4360877;33;20285;-69
2021/05/05 03:20:09;;;;;;;8.70;2.60;;;;;;;;;;4345140;33;20167;-70
2021/05/05 03:22:35;;;;;;;7.87;2.63;;;;;;;;;;4362326;32;20233;-69
2021/05/05 03:25:01;;;;;;;9.20;1.87;;;;;;;;;;4361346;33;20689;-70
2021/05/05 03:27:26;;;;;;;6.73;2.00;;;;;;;;;;4363134;32;20198;-70
2021/05/05 03:29:51;;;;;;;7.07;2.10;;;;;;;;;;4361881;32;20209;-70
2021/05/05 03:32:16;;;;;;;8.20;2.30;;;;;;;;;;4361337;32;20252;-69
2021/05/05 03:34:41;;;;;;;8.77;2.50;;;;;;;;;;4360869;32;20449;-70
2021/05/05 03:37:07;;;;;;;6.32;2.62;;;;;;;;;;4362049;32;20185;-69
2021/05/05 03:39:32;;;;;;;10.23;3.00;;;;;;;;;;4361053;32;20658;-69
2021/05/05 03:41:57;;;;;;;7.03;2.87;;;;;;;;;;4361749;32;20139;-69
2021/05/05 03:44:22;;;;;;;7.80;2.90;;;;;;;;;;4362237;32;20138;-69
2021/05/05 03:46:47;;;;;;;9.37;2.77;;;;;;;;;;4362293;32;20136;-69
2021/05/05 03:49:12;;;;;;;11.63;2.17;;;;;;;;;;4360844;32;20185;-69
2021/05/05 03:51:38;;;;;;;8.57;2.57;;;;;;;;;;4360536;33;20688;-69
2021/05/05 03:54:03;;;;;;;10.53;2.20;;;;;;;;;;4360709;32;20139;-68
2021/05/05 03:56:28;;;;;;;8.87;2.30;;;;;;;;;;4360705;32;20253;-68
2021/05/05 03:58:54;;;;;;;11.43;2.77;;;;;;;;;;4362155;32;20590;-69
2021/05/05 04:01:19;;;;;;;12.53;2.67;;;;;;;;;;4362540;32;20582;-69
2021/05/05 04:03:44;;;;;;;6.13;2.57;;;;;;;;;;4360807;32;20135;-69
2021/05/05 04:06:09;;;;;;;10.67;2.70;;;;;;;;;;4360418;33;20139;-70
2021/05/05 04:08:34;;;;;;;15.47;3.27;;;;;;;;;;4360255;33;20252;-70
2021/05/05 04:10:59;;;;;;;13.23;3.20;;;;;;;;;;4361270;32;20529;-71
2021/05/05 04:13:25;;;;;;;11.57;3.70;;;;;;;;;;4361117;32;20146;-71
2021/05/05 04:15:50;;;;;;;10.07;3.20;;;;;;;;;;4361077;32;20179;-69
2021/05/05 04:18:15;;;;;;;14.07;3.60;;;;;;;;;;4347262;33;20179;-70
2021/05/05 04:20:40;;;;;;;10.73;3.47;;;;;;;;;;4359881;33;20205;-69
2021/05/05 04:23:06;;;;;;;9.33;3.20;;;;;;;;;;4360585;32;20154;-71
2021/05/05 04:25:31;;;;;;;7.97;3.60;;;;;;;;;;4361760;32;20175;-71
2021/05/05 04:27:56;;;;;;;7.17;2.77;;;;;;;;;;4360200;32;20163;-70
2021/05/05 04:30:21;;;;;;;6.28;3.15;;;;;;;;;;4352623;32;20249;-71
2021/05/05 04:32:50;;;;;;;7.50;2.43;;;;;;;;;;4355855;33;20166;-71
2021/05/05 04:35:16;;;;;;;9.70;2.93;;;;;;;;;;4358050;32;20170;-71
2021/05/05 04:37:41;;;;;;;7.40;2.47;;;;;;;;;;4346185;33;20206;-70
2021/05/05 04:40:07;;;;;;;7.57;2.50;;;;;;;;;;4360393;32;20158;-72
2021/05/05 04:42:32;;;;;;;6.90;2.10;;;;;;;;;;4361356;32;20143;-68
2021/05/05 04:45:00;;;;;;;8.70;2.17;;;;;;;;;;4343866;33;20171;-69
2021/05/05 04:47:26;;;;;;;7.77;2.43;;;;;;;;;;4344571;33;20624;-70
2021/05/05 04:49:51;;;;;;;7.50;2.20;;;;;;;;;;4346613;33;20179;-69
2021/05/05 04:52:16;;;;;;;8.00;2.50;;;;;;;;;;4344739;33;20143;-69
2021/05/05 04:54:41;;;;;;;12.18;2.72;;;;;;;;;;4342507;32;20261;-69
2021/05/05 04:57:06;;;;;;;9.80;2.60;;;;;;;;;;4361104;32;20151;-70
2021/05/05 04:59:31;;;;;;;10.33;2.57;;;;;;;;;;4360870;32;20178;-69
2021/05/05 05:01:57;;;;;;;12.50;2.70;;;;;;;;;;4358601;33;20591;-70
2021/05/05 05:04:22;;;;;;;6.57;3.00;;;;;;;;;;4360905;32;20273;-69
2021/05/05 05:06:47;;;;;;;9.38;2.50;;;;;;;;;;4358725;32;20179;-71
2021/05/05 05:09:12;;;;;;;11.53;3.03;;;;;;;;;;4360614;32;20147;-71
2021/05/05 05:11:37;;;;;;;14.57;3.13;;;;;;;;;;4360798;33;20209;-70
2021/05/05 05:14:03;;;;;;;12.83;2.70;;;;;;;;;;4347815;33;20229;-68
2021/05/05 05:16:28;;;;;;;12.03;2.43;;;;;;;;;;4359683;33;20318;-69
2021/05/05 05:18:53;;;;;;;9.77;2.27;;;;;;;;;;4360635;33;20154;-69
2021/05/05 05:21:18;;;;;;;14.50;2.77;;;;;;;;;;4359099;32;20161;-69
2021/05/05 05:23:44;;;;;;;7.30;2.57;;;;;;;;;;4358956;32;20576;-70
2021/05/05 05:26:09;;;;;;;8.80;2.40;;;;;;;;;;4360730;33;20143;-69
2021/05/05 05:28:34;;;;;;;11.47;2.67;;;;;;;;;;4345649;33;20188;-70
2021/05/05 05:30:59;;;;;;;10.15;2.20;;;;;;;;;;4359634;33;20247;-70
2021/05/05 05:33:25;;;;;;;11.98;2.28;;;;;;;;;;4360686;33;20147;-69
2021/05/05 05:35:51;;;;;;;10.63;2.10;;;;;;;;;;4346714;33;20229;-69
2021/05/05 05:38:16;;;;;;;12.27;2.50;;;;;;;;;;4346743;33;20175;-70
2021/05/05 05:40:41;;;;;;;8.50;2.30;;;;;;;;;;4345532;33;20202;-70
2021/05/05 05:43:06;;;;;;;9.70;2.90;;;;;;;;;;4360194;33;20135;-69
2021/05/05 05:45:32;;;;;;;12.47;2.97;;;;;;;;;;4346667;33;20333;-69
2021/05/05 05:47:57;;;;;;;11.07;3.40;;;;;;;;;;4346492;33;20163;-69
2021/05/05 05:50:22;;;;;;;13.37;2.70;;;;;;;;;;4347547;33;20217;-70
2021/05/05 05:52:47;;;;;;;14.87;3.07;;;;;;;;;;4345193;33;20518;-68
2021/05/05 05:55:14;;;;;;;16.07;3.07;;;;;;;;;;4360137;32;20166;-71
2021/05/05 05:57:40;;;;;;;17.33;3.00;;;;;;;;;;4345995;33;20163;-70
2021/05/05 06:00:09;;;;;;;11.33;2.70;;;;;;;;;;4341593;33;20220;-70
2021/05/05 06:02:34;;;;;;;11.60;3.27;;;;;;;;;;4360233;32;20159;-69
2021/05/05 06:05:00;;;;;;;13.30;3.23;;;;;;;;;;4361828;32;20204;-71
2021/05/05 06:07:25;;;;;;;15.03;3.40;;;;;;;;;;4349651;32;20261;-70
2021/05/05 06:09:50;;;;;;;15.57;3.33;;;;;;;;;;4360414;33;20592;-70
2021/05/05 06:12:15;;;;;;;10.90;3.40;;;;;;;;;;4349935;32;20287;-70
2021/05/05 06:14:40;;;;;;;12.73;3.07;;;;;;;;;;4350133;32;20611;-70
2021/05/05 06:17:06;;;;;;;12.37;3.33;;;;;;;;;;4363284;32;20255;-70
2021/05/05 06:19:31;;;;;;;17.10;3.57;;;;;;;;;;4349528;32;20639;-69
2021/05/05 06:21:56;;;;;;;7.60;2.40;;;;;;;;;;4363118;32;20174;-70
2021/05/05 06:24:21;;;;;;;14.83;2.63;;;;;;;;;;4361271;32;20198;-70
2021/05/05 06:26:46;;;;;;;7.17;2.40;;;;;;;;;;4349477;32;20189;-69
2021/05/05 06:29:11;;;;;;;4.47;1.90;;;;;;;;;;4362053;32;20135;-69
2021/05/05 06:31:37;;;;;;;5.63;2.60;;;;;;;;;;4361729;33;20779;-70
2021/05/05 06:34:03;;;;;;;6.70;2.13;;;;;;;;;;4361143;32;20252;-69
2021/05/05 06:36:28;;;;;;;6.70;1.97;;;;;;;;;;4362928;32;20194;-70
2021/05/05 06:38:53;;;;;;;5.90;1.80;;;;;;;;;;4363088;32;20603;-71
2021/05/05 06:41:18;;;;;;;6.90;2.10;;;;;;;;;;4349448;32;20197;-71
2021/05/05 06:43:43;;;;;;;5.93;2.23;;;;;;;;;;4349571;32;20603;-70
2021/05/05 06:46:08;;;;;;;8.50;1.80;;;;;;;;;;4360580;32;20467;-70
2021/05/05 06:48:34;;;;;;;4.13;1.20;;;;;;;;;;4362494;32;20214;-70
2021/05/05 06:50:59;;;;;;;5.90;1.43;;;;;;;;;;4362718;32;20147;-70
2021/05/05 06:53:24;;;;;;;10.50;1.50;;;;;;;;;;4346105;33;20601;-70
2021/05/05 06:55:49;;;;;;;8.75;1.70;;;;;;;;;;4345442;33;20167;-69
2021/05/05 06:58:14;;;;;;;6.53;1.43;;;;;;;;;;4346567;33;20181;-69
2021/05/05 07:00:39;;;;;;;4.80;1.30;;;;;;;;;;4346618;33;20151;-70
2021/05/05 07:03:05;;;;;;;6.10;1.50;;;;;;;;;;4354590;32;20218;-70
2021/05/05 07:05:30;;;;;;;8.23;1.70;;;;;;;;;;4363130;32;20244;-69
2021/05/05 07:07:55;;;;;;;4.43;1.53;;;;;;;;;;4361437;32;20158;-69
2021/05/05 07:10:20;;;;;;;7.63;1.40;;;;;;;;;;4360554;32;20135;-70
2021/05/05 07:12:46;;;;;;;6.43;1.40;;;;;;;;;;4362614;32;20148;-70
2021/05/05 07:15:11;;;;;;;6.53;1.67;;;;;;;;;;4362576;32;20599;-69
2021/05/05 07:17:36;;;;;;;6.83;1.90;;;;;;;;;;4348815;33;20167;-69
2021/05/05 07:20:02;;;;;;;10.37;2.13;;;;;;;;;;4360445;32;20282;-69
2021/05/05 07:22:27;;;;;;;6.53;2.03;;;;;;;;;;4361994;32;20139;-69
2021/05/05 07:24:52;;;;;;;12.77;2.57;;;;;;;;;;4361441;32;20429;-71
2021/05/05 07:27:18;;;;;;;7.53;2.50;;;;;;;;;;4362607;32;20166;-70
2021/05/05 07:29:43;;;;;;;9.37;2.57;;;;;;;;;;4351875;33;20499;-68
2021/05/05 07:32:08;;;;;;;9.43;2.07;;;;;;;;;;4361410;32;20170;-69
2021/05/05 07:34:34;;;;;;;12.33;2.47;;;;;;;;;;4358699;32;20143;-68
2021/05/05 07:37:09;;;;;;;14.00;2.67;;;;;;;;;;4361423;32;20176;-68
2021/05/05 07:49:48;;;;;;;13.03;3.20;;;;;;;;;;4361769;32;20211;-68
2021/05/05 07:52:14;;;;;;;13.97;3.30;;;;;;;;;;4345909;33;20495;-69
2021/05/05 07:54:39;;;;;;;8.60;3.57;;;;;;;;;;4345708;33;20136;-68
2021/05/05 07:57:04;;;;;;;15.17;3.33;;;;;;;;;;4340172;33;20167;-68
2021/05/05 07:59:30;;;;;;;9.93;2.47;;;;;;;;;;4356432;33;20186;-68
2021/05/05 08:01:55;;;;;;;10.43;3.13;;;;;;;;;;4360343;33;20162;-68
2021/05/05 08:04:20;;;;;;;8.60;2.60;;;;;;;;;;4347060;33;20159;-70
2021/05/05 08:06:45;;;;;;;10.73;2.50;;;;;;;;;;4361544;32;20169;-69
2021/05/05 08:09:11;;;;;;;11.03;2.17;;;;;;;;;;4347583;32;20287;-69
2021/05/05 08:11:36;;;;;;;7.97;2.30;;;;;;;;;;4359845;33;20147;-68
2021/05/05 08:14:01;;;;;;;12.37;2.50;;;;;;;;;;4347104;33;20280;-70
2021/05/05 08:16:26;;;;;;;12.33;2.00;;;;;;;;;;4359887;33;20180;-69
2021/05/05 08:18:51;;;;;;;10.77;2.37;;;;;;;;;;4359774;32;20201;-70
2021/05/05 08:21:17;;;;;;;7.90;1.77;;;;;;;;;;4361271;32;20151;-70
2021/05/05 08:23:42;;;;;;;9.97;1.90;;;;;;;;;;4360540;32;20232;-70
2021/05/05 08:26:07;;;;;;;11.77;1.90;;;;;;;;;;4347676;33;20210;-69
2021/05/05 08:28:34;;;;;;;8.70;2.07;;;;;;;;;;4345493;32;20217;-69
2021/05/05 08:30:59;;;;;;;6.80;1.87;;;;;;;;;;4346632;32;20234;-69
2021/05/05 08:33:24;;;;;;;11.20;2.07;;;;;;;;;;4360815;32;20193;-70
2021/05/05 08:35:50;;;;;;;10.13;2.77;;;;;;;;;;4359840;33;20193;-69
2021/05/05 08:38:15;;;;;;;7.53;2.27;;;;;;;;;;4361551;32;20174;-70
2021/05/05 08:40:41;;;;;;;8.40;2.33;;;;;;;;;;4355398;33;20147;-69
2021/05/05 08:43:06;;;;;;;9.50;2.43;;;;;;;;;;4360458;32;20220;-69
2021/05/05 08:45:32;;;;;;;8.90;2.00;;;;;;;;;;4360565;32;20182;-69
2021/05/05 08:47:59;;;;;;;12.13;2.40;;;;;;;;;;4359818;33;20228;-69
2021/05/05 08:50:25;;;;;;;10.27;2.27;;;;;;;;;;4360071;32;20456;-68
2021/05/05 08:52:51;;;;;;;15.90;2.50;;;;;;;;;;4346465;32;20166;-69
2021/05/05 08:55:17;;;;;;;9.17;2.27;;;;;;;;;;4360255;32;20586;-69
2021/05/05 08:57:43;;;;;;;14.93;2.10;;;;;;;;;;4346060;33;20186;-69
2021/05/05 09:00:10;;;;;;;14.53;2.37;;;;;;;;;;4358005;33;20221;-69
2021/05/05 09:02:35;;;;;;;8.77;2.00;;;;;;;;;;4358100;33;20178;-68
2021/05/05 09:05:03;;;;;;;7.33;1.70;;;;;;;;;;4359364;32;20136;-69
2021/05/05 09:07:33;;;;;;;10.30;1.80;;;;;;;;;;4361033;32;20195;-68
2021/05/05 09:10:03;;;;;;;10.90;1.83;;;;;;;;;;4358947;33;20147;-67
2021/05/05 09:12:29;;;;;;;9.97;1.87;;;;;;;;;;4358293;33;20174;-67
2021/05/05 09:14:54;;;;;;;9.17;1.80;;;;;;;;;;4359676;33;20190;-68
2021/05/05 09:17:20;;;;;;;7.17;1.70;;;;;;;;;;4360617;33;20162;-68
2021/05/05 09:19:45;;;;;;;8.53;1.60;;;;;;;;;;4358377;33;20230;-71
2021/05/05 09:22:11;;;;;;;7.77;1.77;;;;;;;;;;4354223;33;20716;-68
2021/05/05 09:24:38;;;;;;;6.55;1.85;;;;;;;;;;4349918;33;20179;-69
2021/05/05 09:27:06;;;;;;;11.73;2.00;;;;;;;;;;4358534;33;20155;-70
2021/05/05 09:29:38;;;;;;;11.67;1.80;;;;;;;;;;4360444;32;20214;-69
2021/05/05 09:32:04;;;;;;;10.30;2.40;;;;;;;;;;4348336;33;20241;-69
2021/05/05 09:34:29;;;;;;;9.83;2.10;;;;;;;;;;4363671;32;20189;-69
2021/05/05 09:37:03;;;;;;;10.40;1.80;;;;;;;;;;4363382;32;20147;-70
2021/05/05 09:39:30;;;;;;;10.55;2.25;;;;;;;;;;4358565;32;20171;-69
2021/05/05 09:41:55;;;;;;;10.77;1.80;;;;;;;;;;4348051;33;20143;-69
2021/05/05 09:44:21;;;;;;;10.18;1.83;;;;;;;;;;4356488;33;20159;-70
2021/05/05 09:46:47;;;;;;;8.70;2.20;;;;;;;;;;4362371;32;20162;-69
2021/05/05 09:49:32;;;;;;;8.00;1.73;;;;;;;;;;4350317;32;20646;-70
2021/05/05 09:52:00;;;;;;;12.07;2.28;;;;;;;;;;4362497;33;20142;-71
2021/05/05 09:54:37;;;;;;;8.03;1.50;;;;;;;;;;4350107;32;20233;-70
2021/05/05 09:57:11;;;;;;;13.10;2.20;;;;;;;;;;4362640;32;20178;-70
2021/05/05 09:59:52;;;;;;;10.30;2.00;;;;;;;;;;4348721;33;20556;-70
2021/05/05 10:02:17;;;;;;;9.98;2.15;;;;;;;;;;4364132;32;20185;-70
2021/05/05 10:04:55;;;;;;;9.05;1.80;;;;;;;;;;4363828;32;20155;-71
2021/05/05 10:07:20;;;;;;;8.27;1.70;;;;;;;;;;4364059;32;20223;-71
2021/05/05 10:09:45;;;;;;;9.67;1.93;;;;;;;;;;4361341;32;20165;-70
2021/05/05 10:12:10;;;;;;;9.83;1.77;;;;;;;;;;4361598;33;20182;-69
2021/05/05 10:14:37;;;;;;;11.50;1.90;;;;;;;;;;4363347;32;20258;-70
2021/05/05 10:17:02;;;;;;;9.43;1.90;;;;;;;;;;4361383;33;20285;-70
2021/05/05 10:19:28;;;;;;;9.40;2.37;;;;;;;;;;4348724;33;20237;-70
2021/05/05 10:21:54;;;;;;;9.87;2.50;;;;;;;;;;4363114;32;20680;-71
2021/05/05 10:24:23;;;;;;;9.60;2.43;;;;;;;;;;4361790;32;20148;-68
2021/05/05 10:26:49;;;;;;;5.80;1.57;;;;;;;;;;4361551;32;20135;-70
2021/05/05 10:29:15;;;;;;;8.13;1.90;;;;;;;;;;4347825;33;20181;-69
2021/05/05 10:31:40;;;;;;;6.73;1.60;;;;;;;;;;4362159;32;20202;-70
2021/05/05 10:34:15;;;;;;;10.57;1.73;;;;;;;;;;4361944;33;20175;-69
2021/05/05 10:36:45;;;;;;;9.10;1.67;;;;;;;;;;4349139;32;20613;-70
2021/05/05 10:39:16;;;;;;;12.30;2.30;;;;;;;;;;4363041;32;20143;-69
2021/05/05 10:41:41;;;;;;;9.10;2.70;;;;;;;;;;4346981;33;20167;-70
2021/05/05 10:44:07;;;;;;;10.43;2.00;;;;;;;;;;4338571;33;20245;-72
2021/05/05 10:46:36;;;;;;;12.83;1.90;;;;;;;;;;4346325;33;20230;-70
2021/05/05 10:49:02;;;;;;;10.90;2.10;;;;;;;;;;4346334;33;20594;-70
2021/05/05 10:51:54;;;;;;;8.17;2.00;;;;;;;;;;4345293;33;20190;-71
2021/05/05 10:54:20;;;;;;;8.70;2.30;;;;;;;;;;4343600;33;20195;-71
2021/05/05 10:57:04;;;;;;;9.00;1.90;;;;;;;;;;4346997;33;20170;-71
2021/05/05 10:59:30;;;;;;;8.23;1.87;;;;;;;;;;4345033;33;20619;-71
2021/05/05 11:01:55;;;;;;;13.10;2.20;;;;;;;;;;4359604;32;20143;-70
2021/05/05 11:04:20;;;;;;;8.37;2.10;;;;;;;;;;4345639;33;20206;-70
2021/05/05 11:06:47;;;;;;;13.32;2.40;;;;;;;;;;4345309;33;20186;-72
2021/05/05 11:09:16;;;;;;;11.47;2.77;;;;;;;;;;4348489;33;20417;-72
2021/05/05 11:11:45;;;;;;;16.93;2.70;;;;;;;;;;4360287;33;20202;-72
2021/05/05 11:14:22;;;;;;;14.23;2.62;;;;;;;;;;4360073;32;20166;-72
2021/05/05 11:17:00;;;;;;;18.20;3.03;;;;;;;;;;4345667;33;20174;-72
2021/05/05 11:19:35;;;;;;;14.23;2.60;;;;;;;;;;4358650;32;20586;-70
2021/05/05 11:22:00;;;;;;;16.30;3.00;;;;;;;;;;4357706;32;20166;-71
2021/05/05 11:24:25;;;;;;;12.88;2.95;;;;;;;;;;4345696;32;20179;-70
2021/05/05 11:26:51;;;;;;;12.03;2.30;;;;;;;;;;4356608;33;20264;-71
2021/05/05 11:29:28;;;;;;;13.23;2.43;;;;;;;;;;4344427;33;20709;-71
2021/05/05 11:31:53;;;;;;;8.82;2.35;;;;;;;;;;4351875;32;20264;-69
2021/05/05 11:34:22;;;;;;;11.18;2.03;;;;;;;;;;4339654;32;20227;-71
2021/05/05 11:36:59;;;;;;;11.63;2.40;;;;;;;;;;4352068;32;20362;-71
2021/05/05 11:39:25;;;;;;;7.15;1.98;;;;;;;;;;4352010;32;20169;-69
2021/05/05 11:41:58;;;;;;;10.90;1.97;;;;;;;;;;4338466;32;20167;-68
2021/05/05 11:44:37;;;;;;;10.13;2.30;;;;;;;;;;4342471;33;20797;-69
2021/05/05 11:47:03;;;;;;;13.03;2.97;;;;;;;;;;4359697;32;20186;-69
2021/05/05 11:49:39;;;;;;;12.57;2.93;;;;;;;;;;4358401;33;20262;-69
2021/05/05 11:52:23;;;;;;;11.80;2.50;;;;;;;;;;4360229;32;20616;-70
2021/05/05 11:54:49;;;;;;;13.03;2.93;;;;;;;;;;4359305;32;20173;-70
2021/05/05 11:57:16;;;;;;;12.50;2.90;;;;;;;;;;4359041;32;20249;-69
2021/05/05 11:59:41;;;;;;;10.93;2.77;;;;;;;;;;4359375;32;20221;-69
2021/05/05 12:02:07;;;;;;;11.83;2.93;;;;;;;;;;4357908;33;20613;-69
2021/05/05 12:04:38;;;;;;;13.60;2.60;;;;;;;;;;4357600;32;20237;-70
2021/05/05 12:07:03;;;;;;;13.53;2.83;;;;;;;;;;4359727;32;20217;-68
2021/05/05 12:09:28;;;;;;;10.37;2.27;;;;;;;;;;4357841;33;20179;-68
2021/05/05 12:12:12;;;;;;;13.02;3.00;;;;;;;;;;4345327;33;20217;-68
2021/05/05 12:14:37;;;;;;;14.50;3.37;;;;;;;;;;4353328;32;20216;-69
2021/05/05 12:17:33;;;;;;;11.70;3.00;;;;;;;;;;4334687;32;20206;-69
2021/05/05 12:20:00;;;;;;;12.37;2.67;;;;;;;;;;4355334;32;20467;-69
2021/05/05 12:22:26;;;;;;;13.30;2.60;;;;;;;;;;4353190;32;20681;-70
2021/05/05 12:25:11;;;;;;;9.13;2.40;;;;;;;;;;4311672;32;20454;-70
2021/05/05 12:27:37;;;;;;;13.32;2.55;;;;;;;;;;4299291;33;20191;-69
2021/05/05 12:30:08;;;;;;;11.77;2.80;;;;;;;;;;4345842;32;20287;-71
2021/05/05 12:32:40;;;;;;;11.63;2.53;;;;;;;;;;4358380;32;20195;-70
2021/05/05 12:35:08;;;;;;;10.52;2.72;;;;;;;;;;4344932;33;20163;-71
2021/05/05 12:37:33;;;;;;;11.85;3.22;;;;;;;;;;4325670;33;20178;-72
2021/05/05 12:39:58;;;;;;;11.77;2.40;;;;;;;;;;4339883;32;20177;-70
2021/05/05 12:42:31;;;;;;;13.20;2.53;;;;;;;;;;4323031;32;20175;-70
2021/05/05 12:45:02;;;;;;;14.77;3.10;;;;;;;;;;4339218;32;20317;-71
2021/05/05 12:47:29;;;;;;;15.52;3.33;;;;;;;;;;4346344;32;20205;-70
2021/05/05 12:49:58;;;;;;;12.55;2.37;;;;;;;;;;4352218;32;20182;-69
2021/05/05 12:52:29;;;;;;;7.57;2.30;;;;;;;;;;4346541;32;20634;-71
2021/05/05 12:54:56;;;;;;;7.28;1.92;;;;;;;;;;4339838;32;20159;-71
2021/05/05 12:57:22;;;;;;;12.35;2.33;;;;;;;;;;4345750;32;20162;-70
2021/05/05 12:59:49;;;;;;;10.63;2.17;;;;;;;;;;4329044;32;21017;-69
2021/05/05 13:02:25;;;;;;;9.00;2.20;;;;;;;;;;4341493;32;20155;-70
2021/05/05 13:05:07;;;;;;;7.85;2.30;;;;;;;;;;4331971;33;20209;-70
2021/05/05 13:07:38;;;;;;;8.68;2.00;;;;;;;;;;4348329;32;20755;-71
2021/05/05 13:10:03;;;;;;;9.10;1.92;;;;;;;;;;4346955;32;20171;-69
2021/05/05 13:12:50;;;;;;;10.93;2.10;;;;;;;;;;4331772;33;20186;-70
2021/05/05 13:15:24;;;;;;;12.52;2.20;;;;;;;;;;4331653;33;20271;-69
2021/05/05 13:20:47;;;;;;;8.95;1.62;;;;;;;;;;4338909;32;20143;-71
2021/05/05 13:29:34;;;;;;;12.37;1.95;;;;;;;;;;4330061;33;20166;-71
2021/05/05 13:31:52;;;;;;;6.95;1.95;;;;;;;;;;4330952;33;20595;-70
2021/05/05 13:34:18;;;;;;;8.85;2.20;;;;;;;;;;4330200;33;20540;-71
2021/05/05 13:36:52;;;;;;;8.77;2.20;;;;;;;;;;4335098;33;20586;-71
2021/05/05 13:39:19;;;;;;;9.75;1.95;;;;;;;;;;4335999;33;20142;-70
2021/05/05 13:41:45;;;;;;;11.38;1.98;;;;;;;;;;4333312;33;20237;-70
2021/05/05 13:44:21;;;;;;;8.10;2.25;;;;;;;;;;4335478;33;20338;-70
2021/05/05 13:49:30;;;;;;;8.57;1.87;;;;;;;;;;4336352;33;20198;-70
2021/05/05 13:51:59;;;;;;;5.28;1.05;;;;;;;;;;4337378;33;20645;-70
2021/05/05 13:54:26;;;;;;;9.40;1.73;;;;;;;;;;4336455;33;20178;-70
2021/05/05 13:56:51;;;;;;;5.75;1.95;;;;;;;;;;4335531;33;20226;-69
2021/05/05 13:59:16;;;;;;;6.93;2.03;;;;;;;;;;4321959;33;20175;-70
2021/05/05 14:01:41;;;;;;;6.15;1.80;;;;;;;;;;4337225;33;20845;-70
2021/05/05 14:04:06;;;;;;;12.23;1.60;;;;;;;;;;4335909;33;20151;-69
2021/05/05 14:06:33;;;;;;;8.70;2.10;;;;;;;;;;4321576;33;20209;-70
2021/05/05 14:08:59;;;;;;;10.35;2.15;;;;;;;;;;4335956;33;20181;-69
2021/05/05 14:11:24;;;;;;;6.25;1.37;;;;;;;;;;4336644;33;20143;-72
2021/05/05 14:13:49;;;;;;;6.90;1.77;;;;;;;;;;4336410;33;20265;-71
2021/05/05 14:16:15;;;;;;;12.20;2.42;;;;;;;;;;4338035;32;20211;-70
2021/05/05 14:18:40;;;;;;;8.15;1.67;;;;;;;;;;4340896;33;20192;-71
2021/05/05 14:21:07;;;;;;;9.18;1.90;;;;;;;;;;4346172;32;20170;-71
2021/05/05 14:23:32;;;;;;;5.87;1.62;;;;;;;;;;4344550;32;20203;-71
2021/05/05 14:25:57;;;;;;;10.10;2.22;;;;;;;;;;4346015;32;20155;-70
2021/05/05 14:28:22;;;;;;;8.20;1.92;;;;;;;;;;4346858;33;20144;-72
2021/05/05 14:30:47;;;;;;;7.47;2.42;;;;;;;;;;4348427;32;20191;-69
2021/05/05 14:33:12;;;;;;;11.57;2.53;;;;;;;;;;4349560;32;20168;-71
2021/05/05 14:35:38;;;;;;;8.77;2.10;;;;;;;;;;4347562;32;20278;-72
2021/05/05 14:38:07;;;;;;;7.53;1.92;;;;;;;;;;4351041;32;20246;-69
2021/05/05 14:40:34;;;;;;;6.70;1.90;;;;;;;;;;4348259;32;20201;-73
2021/05/05 14:43:08;;;;;;;10.50;2.28;;;;;;;;;;4339982;32;20151;-72
2021/05/05 14:50:27;;;;;;;11.95;2.20;;;;;;;;;;4336771;32;20151;-71
2021/05/05 14:52:52;;;;;;;7.97;2.20;;;;;;;;;;4323835;33;20197;-70
2021/05/05 14:55:17;;;;;;;8.18;2.67;;;;;;;;;;4337372;32;20448;-69
2021/05/05 14:57:47;;;;;;;6.33;2.17;;;;;;;;;;4328599;33;20177;-70
2021/05/05 15:00:12;;;;;;;7.68;1.95;;;;;;;;;;4334184;32;20274;-70